createdAt,value
2018-07-28T00:04:10.415Z,54.50
2018-07-28T00:09:07.139Z,55.10
2018-07-28T00:14:00.445Z,55.30
2018-07-28T00:18:53.911Z,55.20
2018-07-28T00:28:40.414Z,55.90
2018-07-28T00:33:33.665Z,56.70
2018-07-28T00:38:26.929Z,57.10
2018-07-28T00:43:20.201Z,57.30
2018-07-28T00:48:13.463Z,57.70
2018-07-28T00:58:00.749Z,58.20
2018-07-28T01:02:54.021Z,58.80
2018-07-28T01:07:47.349Z,59.30
2018-07-28T01:12:40.600Z,59.40
2018-07-28T01:17:33.849Z,59.60
2018-07-28T01:22:27.175Z,59.60
2018-07-28T01:27:20.477Z,60.20
2018-07-28T01:42:00.043Z,62.80
2018-07-28T01:46:53.295Z,63.20
2018-07-28T01:51:46.567Z,63.50
2018-07-28T01:56:39.875Z,63.80
2018-07-28T02:01:33.218Z,64.00
2018-07-28T02:06:26.496Z,64.20
2018-07-28T02:11:19.797Z,63.90
2018-07-28T02:16:13.059Z,63.40
2018-07-28T02:21:06.344Z,63.10
2018-07-28T02:25:59.626Z,63.50
2018-07-28T02:30:53.006Z,63.60
2018-07-28T02:35:46.321Z,63.70
2018-07-28T02:40:39.597Z,63.90
2018-07-28T02:45:32.852Z,64.20
2018-07-28T02:50:26.106Z,64.50
2018-07-28T02:55:19.457Z,64.60
2018-07-28T03:00:15.406Z,65.40
2018-07-28T03:05:08.731Z,64.20
2018-07-28T03:10:02.310Z,63.70
2018-07-28T03:14:55.637Z,63.50
2018-07-28T03:19:48.931Z,63.60
2018-07-28T03:24:42.180Z,64.40
2018-07-28T03:29:35.748Z,65.10
2018-07-28T03:34:28.989Z,66.00
2018-07-28T03:39:22.284Z,67.70
2018-07-28T03:49:08.726Z,71.20
2018-07-28T03:54:02.019Z,72.70
2018-07-28T04:03:48.482Z,76.60
2018-07-28T04:08:41.721Z,77.20
2018-07-28T04:13:35.016Z,77.70
2018-07-28T04:18:28.276Z,77.40
2018-07-28T04:28:14.700Z,78.20
2018-07-28T04:33:08.016Z,78.00
2018-07-28T04:38:01.249Z,78.10
2018-07-28T04:42:54.519Z,78.10
2018-07-28T04:47:47.792Z,77.70
2018-07-28T04:52:41.046Z,76.80
2018-07-28T04:57:34.352Z,75.40
2018-07-28T05:02:28.300Z,74.00
2018-07-28T05:07:21.641Z,72.90
2018-07-28T05:12:14.845Z,73.10
2018-07-28T05:17:08.106Z,71.50
2018-07-28T05:22:01.330Z,70.90
2018-07-28T05:26:54.643Z,70.80
2018-07-28T05:36:41.127Z,72.30
2018-07-28T05:41:34.400Z,72.60
2018-07-28T05:46:27.669Z,72.80
2018-07-28T05:51:20.941Z,73.20
2018-07-28T05:56:14.198Z,73.60
2018-07-28T06:01:07.611Z,75.00
2018-07-28T06:06:00.875Z,75.40
2018-07-28T06:10:54.265Z,75.60
2018-07-28T06:15:47.558Z,75.40
2018-07-28T06:20:40.797Z,75.20
2018-07-28T06:25:34.068Z,76.00
2018-07-28T06:30:27.348Z,75.90
2018-07-28T06:35:20.614Z,73.90
2018-07-28T06:40:13.896Z,73.20
2018-07-28T06:45:07.221Z,72.30
2018-07-28T06:50:00.479Z,74.00
2018-07-28T06:54:54.215Z,74.10
2018-07-28T07:04:40.679Z,80.00
2018-07-28T07:09:33.883Z,77.70
2018-07-28T07:14:27.185Z,77.20
2018-07-28T07:19:20.590Z,75.50
2018-07-28T07:29:07.080Z,72.80
2018-07-28T07:34:00.358Z,72.30
2018-07-28T07:38:53.610Z,71.00
2018-07-28T07:43:46.887Z,70.10
2018-07-28T07:48:40.153Z,69.70
2018-07-28T07:53:33.425Z,69.30
2018-07-28T07:58:26.680Z,68.80
2018-07-28T08:08:13.170Z,70.50
2018-07-28T08:13:06.507Z,70.90
2018-07-28T08:22:52.963Z,71.90
2018-07-28T08:32:39.489Z,70.70
2018-07-28T08:37:32.722Z,68.00
2018-07-28T08:42:26.309Z,66.90
2018-07-28T08:47:19.645Z,65.40
2018-07-28T08:52:14.123Z,64.90
2018-07-28T08:57:07.369Z,63.00
2018-07-28T09:02:01.889Z,59.90
2018-07-28T09:11:48.536Z,55.50
2018-07-28T09:16:41.781Z,53.90
2018-07-28T09:21:35.194Z,54.30
2018-07-28T09:26:28.712Z,53.50
2018-07-28T09:31:22.058Z,52.90
2018-07-28T09:36:15.311Z,52.30
2018-07-28T09:41:08.636Z,49.50
2018-07-28T09:55:48.795Z,48.90
2018-07-28T10:00:47.928Z,49.90
2018-07-28T10:05:41.182Z,49.60
2018-07-28T10:10:34.427Z,49.90
2018-07-28T10:20:20.787Z,50.10
2018-07-28T10:25:14.040Z,49.60
2018-07-28T10:39:55.303Z,47.60
2018-07-28T10:49:41.990Z,48.60
2018-07-28T10:54:35.246Z,48.00
2018-07-28T10:59:28.528Z,48.70
2018-07-28T11:04:21.760Z,50.20
2018-07-28T11:09:15.150Z,50.60
2018-07-28T11:14:08.391Z,49.40
2018-07-28T11:19:01.770Z,48.50
2018-07-28T11:23:57.860Z,47.70
2018-07-28T11:34:02.333Z,49.10
2018-07-28T11:44:17.416Z,50.20
2018-07-28T11:49:10.765Z,48.50
2018-07-28T11:54:04.052Z,47.80
2018-07-28T11:58:57.350Z,47.30
2018-07-28T12:03:50.712Z,47.20
2018-07-28T12:08:43.918Z,47.90
2018-07-28T12:18:30.488Z,52.30
2018-07-28T12:23:23.798Z,51.80
2018-07-28T12:28:17.189Z,51.70
2018-07-28T12:33:10.435Z,50.70
2018-07-28T12:38:03.687Z,50.60
2018-07-28T12:42:57.039Z,49.80
2018-07-28T12:47:50.395Z,49.40
2018-07-28T12:52:43.647Z,49.30
2018-07-28T12:57:36.882Z,48.10
2018-07-28T13:02:30.740Z,48.60
2018-07-28T13:07:25.942Z,49.50
2018-07-28T13:12:19.220Z,58.10
2018-07-28T13:17:12.805Z,60.70
2018-07-28T13:22:06.345Z,58.80
2018-07-28T13:26:59.651Z,58.70
2018-07-28T13:31:52.970Z,57.80
2018-07-28T13:41:39.389Z,57.00
2018-07-28T13:46:32.680Z,62.90
2018-07-28T13:51:26.012Z,57.10
2018-07-28T13:56:19.237Z,55.90
2018-07-28T14:01:12.558Z,54.50
2018-07-28T14:06:07.178Z,51.00
2018-07-28T14:11:00.457Z,48.80
2018-07-28T14:15:53.697Z,48.10
2018-07-28T14:20:46.958Z,47.20
2018-07-28T14:30:33.480Z,47.80
2018-07-28T14:35:26.708Z,48.50
2018-07-28T14:40:20.732Z,50.30
2018-07-28T14:45:13.967Z,50.40
2018-07-28T14:50:08.886Z,50.20
2018-07-28T14:55:02.146Z,50.20
2018-07-28T15:04:48.666Z,50.80
2018-07-28T15:09:41.937Z,50.60
2018-07-28T15:14:35.197Z,50.40
2018-07-28T15:19:28.443Z,49.30
2018-07-28T15:24:22.018Z,48.90
2018-07-28T15:29:15.239Z,50.50
2018-07-28T15:34:09.165Z,51.20
2018-07-28T15:39:02.595Z,49.80
2018-07-28T15:43:55.864Z,50.20
2018-07-28T15:48:49.117Z,50.50
2018-07-28T15:53:42.384Z,49.80
2018-07-28T15:58:35.665Z,49.70
2018-07-28T16:03:28.909Z,49.40
2018-07-28T16:13:15.298Z,47.80
2018-07-28T16:18:08.528Z,46.80
2018-07-28T16:27:54.909Z,47.40
2018-07-28T16:32:48.158Z,46.80
2018-07-28T16:42:35.563Z,47.50
2018-07-28T16:47:28.782Z,46.90
2018-07-28T16:52:22.041Z,48.50
2018-07-28T16:57:15.280Z,49.20
2018-07-28T17:02:08.588Z,50.20
2018-07-28T17:07:01.919Z,50.70
2018-07-28T17:11:55.111Z,50.90
2018-07-28T17:16:48.328Z,51.30
2018-07-28T17:21:41.717Z,52.00
2018-07-28T17:31:28.158Z,54.30
2018-07-28T17:41:14.897Z,55.70
2018-07-28T17:46:08.155Z,56.40
2018-07-28T17:51:01.450Z,56.70
2018-07-28T17:55:54.697Z,56.80
2018-07-28T18:00:48.970Z,56.80
2018-07-28T18:05:42.302Z,56.80
2018-07-28T18:10:35.571Z,56.70
2018-07-28T18:15:28.790Z,56.50
2018-07-28T18:20:22.030Z,56.80
2018-07-28T18:25:15.513Z,57.30
2018-07-28T18:30:08.783Z,57.60
2018-07-28T18:35:02.034Z,57.80
2018-07-28T18:39:55.956Z,58.20
2018-07-28T18:44:49.236Z,58.10
2018-07-28T18:59:28.807Z,57.60
2018-07-28T19:04:22.055Z,57.80
2018-07-28T19:09:20.796Z,58.10
2018-07-28T19:14:20.567Z,58.30
2018-07-28T19:24:10.094Z,58.90
2018-07-28T19:29:08.964Z,59.50
2018-07-28T19:34:02.209Z,59.60
2018-07-28T19:39:06.460Z,59.70
2018-07-28T19:44:06.480Z,59.40
2018-07-28T19:53:55.345Z,59.20
2018-07-28T19:58:48.642Z,59.40
2018-07-28T20:03:41.868Z,59.40
2018-07-28T20:08:35.138Z,59.30
2018-07-28T20:13:28.406Z,58.90
2018-07-28T20:18:21.708Z,58.90
2018-07-28T20:28:08.166Z,59.90
2018-07-28T20:33:01.424Z,59.60
2018-07-28T20:37:54.722Z,60.30
2018-07-28T20:42:47.978Z,60.10
2018-07-28T20:52:34.498Z,59.10
2018-07-28T20:57:27.742Z,59.00
2018-07-28T21:02:22.628Z,58.60
2018-07-28T21:12:09.134Z,58.10
2018-07-28T21:17:02.408Z,58.00
2018-07-28T21:21:55.667Z,57.90
2018-07-28T21:26:48.960Z,57.80
2018-07-28T21:31:42.328Z,57.60
2018-07-28T21:36:35.576Z,57.40
2018-07-28T21:41:29.708Z,57.50
2018-07-28T21:46:22.982Z,57.70
2018-07-28T21:51:16.260Z,57.20
2018-07-28T21:56:09.498Z,57.20
2018-07-28T22:01:08.488Z,56.50
2018-07-28T22:06:01.722Z,56.80
2018-07-28T22:10:54.980Z,57.00
2018-07-28T22:15:48.425Z,57.00
2018-07-28T22:20:41.716Z,56.00
2018-07-28T22:25:34.984Z,55.80
2018-07-28T22:30:28.505Z,55.90
2018-07-28T22:35:21.750Z,55.80
2018-07-28T22:40:15.662Z,55.70
2018-07-28T22:50:02.549Z,55.60
2018-07-28T22:59:48.968Z,55.70
2018-07-28T23:04:42.218Z,55.80
2018-07-28T23:09:36.895Z,55.80
2018-07-28T23:14:31.448Z,56.50
2018-07-28T23:24:20.438Z,57.10
2018-07-28T23:29:13.750Z,57.60
2018-07-28T23:34:07.026Z,57.70
2018-07-28T23:39:00.314Z,58.10
2018-07-28T23:43:53.707Z,58.70
2018-07-28T23:48:46.977Z,59.40
2018-07-28T23:58:33.350Z,61.00
